Time;durP1;ratioP1;P1;durP2;ratioP2;P2;SDS_P1;SDS_P2;PMS_P1;PMS_P2;Temp;Humidity;BMP_temperature;BMP_pressure;BME280_temperature;BME280_humidity;BME280_pressure;Samples;Min_cycle;Max_cycle;Signal;HPM_P1;HPM_P2
2023/08/28 00:01:01;;;;;;;5.30;4.20;;;;;;;;;;5073118;28;20209;-53
2023/08/28 00:03:27;;;;;;;5.90;4.40;;;;;;;;;;5073081;28;20198;-49
2023/08/28 00:05:53;;;;;;;11.13;5.80;;;;;;;;;;5072488;28;20222;-48
2023/08/28 00:08:19;;;;;;;9.43;5.53;;;;;;;;;;5072907;28;20198;-49
2023/08/28 00:10:45;;;;;;;7.10;4.73;;;;;;;;;;5072879;28;20184;-48
2023/08/28 00:13:11;;;;;;;7.07;5.60;;;;;;;;;;5073203;28;20587;-48
2023/08/28 00:15:37;;;;;;;6.27;5.03;;;;;;;;;;5072438;28;20203;-48
2023/08/28 00:18:03;;;;;;;7.20;5.10;;;;;;;;;;5072761;28;20195;-50
2023/08/28 00:20:29;;;;;;;6.03;4.67;;;;;;;;;;5072794;28;20206;-49
2023/08/28 00:22:55;;;;;;;7.47;5.37;;;;;;;;;;5072711;28;20179;-53
2023/08/28 00:25:21;;;;;;;7.27;5.03;;;;;;;;;;5072408;28;20185;-49
2023/08/28 00:27:47;;;;;;;5.67;4.27;;;;;;;;;;5072455;28;20707;-49
2023/08/28 00:30:13;;;;;;;5.77;4.07;;;;;;;;;;5065448;28;20184;-53
2023/08/28 00:32:39;;;;;;;4.70;3.77;;;;;;;;;;5072462;28;20234;-58
2023/08/28 00:35:05;;;;;;;5.93;4.33;;;;;;;;;;5071781;28;20201;-49
2023/08/28 00:37:31;;;;;;;5.73;4.10;;;;;;;;;;5053850;28;20200;-53
2023/08/28 00:39:57;;;;;;;6.13;3.80;;;;;;;;;;5072266;28;20186;-53
2023/08/28 00:42:23;;;;;;;3.90;3.50;;;;;;;;;;5072346;28;20178;-48
2023/08/28 00:44:49;;;;;;;6.23;4.63;;;;;;;;;;5072088;28;20176;-50
2023/08/28 00:47:15;;;;;;;5.97;4.13;;;;;;;;;;5071900;28;20199;-48
2023/08/28 00:49:41;;;;;;;5.10;4.53;;;;;;;;;;5072148;28;20175;-50
2023/08/28 00:52:08;;;;;;;4.00;3.60;;;;;;;;;;5072206;28;20184;-48
2023/08/28 00:54:34;;;;;;;5.13;4.37;;;;;;;;;;5072033;28;20171;-53
2023/08/28 00:57:00;;;;;;;7.43;5.10;;;;;;;;;;5071524;28;20215;-54
2023/08/28 00:59:28;;;;;;;5.97;4.60;;;;;;;;;;5071875;28;20648;-50
2023/08/28 01:01:54;;;;;;;10.63;9.53;;;;;;;;;;5071932;28;20198;-52
2023/08/28 01:04:20;;;;;;;5.13;4.30;;;;;;;;;;5072107;28;20202;-53
2023/08/28 01:06:50;;;;;;;5.80;4.40;;;;;;;;;;5071364;28;20858;-48
2023/08/28 01:09:22;;;;;;;5.70;4.33;;;;;;;;;;5071930;28;20182;-48
2023/08/28 01:11:48;;;;;;;6.37;5.10;;;;;;;;;;5071755;28;20702;-50
2023/08/28 01:14:14;;;;;;;6.30;4.53;;;;;;;;;;5071758;28;20193;-49
2023/08/28 01:16:41;;;;;;;8.03;4.87;;;;;;;;;;5071270;28;20208;-48
2023/08/28 01:19:11;;;;;;;6.20;4.37;;;;;;;;;;5071749;28;20648;-48
2023/08/28 01:21:37;;;;;;;7.07;4.73;;;;;;;;;;5071678;28;20170;-49
2023/08/28 01:24:06;;;;;;;7.67;5.10;;;;;;;;;;5071546;28;20263;-51
2023/08/28 01:26:32;;;;;;;7.60;4.70;;;;;;;;;;5071284;28;20228;-49
2023/08/28 01:28:58;;;;;;;8.30;5.20;;;;;;;;;;5071514;28;20182;-48
2023/08/28 01:31:24;;;;;;;10.30;8.50;;;;;;;;;;5071568;28;20673;-51
2023/08/28 01:33:53;;;;;;;16.13;14.50;;;;;;;;;;5071448;28;20660;-49
2023/08/28 01:36:25;;;;;;;9.33;5.20;;;;;;;;;;5071070;28;20211;-49
2023/08/28 01:38:58;;;;;;;6.27;3.83;;;;;;;;;;5071463;28;20240;-48
2023/08/28 01:41:26;;;;;;;5.47;3.43;;;;;;;;;;5071475;28;20186;-51
2023/08/28 01:43:59;;;;;;;5.67;3.70;;;;;;;;;;5071421;28;20270;-48
2023/08/28 01:46:26;;;;;;;7.80;4.83;;;;;;;;;;5071015;28;20690;-48
2023/08/28 01:48:53;;;;;;;5.87;3.43;;;;;;;;;;5071328;28;20543;-48
2023/08/28 01:51:19;;;;;;;5.33;3.23;;;;;;;;;;5071453;28;20178;-50
2023/08/28 01:53:45;;;;;;;4.57;2.90;;;;;;;;;;5071376;28;20267;-52
2023/08/28 01:56:11;;;;;;;3.33;2.77;;;;;;;;;;5070836;28;20231;-48
2023/08/28 01:58:40;;;;;;;5.87;3.90;;;;;;;;;;5071331;28;20751;-49
2023/08/28 02:01:06;;;;;;;5.80;4.37;;;;;;;;;;5071228;28;20186;-51
2023/08/28 02:03:32;;;;;;;4.67;3.10;;;;;;;;;;5071317;28;20176;-48
2023/08/28 02:05:58;;;;;;;5.43;3.13;;;;;;;;;;5070510;28;20214;-48
2023/08/28 02:08:24;;;;;;;4.07;2.53;;;;;;;;;;5071248;28;20257;-48
2023/08/28 02:10:50;;;;;;;6.57;3.13;;;;;;;;;;5071392;28;20182;-51
2023/08/28 02:13:16;;;;;;;4.20;2.70;;;;;;;;;;5071215;28;20189;-50
2023/08/28 02:15:41;;;;;;;4.93;2.63;;;;;;;;;;5070813;28;20214;-51
2023/08/28 02:18:07;;;;;;;4.50;2.73;;;;;;;;;;5071021;28;20313;-55
2023/08/28 02:20:33;;;;;;;3.57;3.10;;;;;;;;;;5071104;28;20182;-52
2023/08/28 02:22:59;;;;;;;5.57;3.30;;;;;;;;;;5071024;28;20187;-49
2023/08/28 02:25:25;;;;;;;5.93;3.30;;;;;;;;;;5070815;28;20209;-49
2023/08/28 02:27:51;;;;;;;8.33;6.73;;;;;;;;;;5070937;28;20203;-49
2023/08/28 02:30:17;;;;;;;5.60;3.33;;;;;;;;;;5071046;28;20229;-48
2023/08/28 02:32:44;;;;;;;5.47;3.50;;;;;;;;;;5070941;28;20182;-48
2023/08/28 02:35:14;;;;;;;11.93;5.73;;;;;;;;;;5070551;28;20664;-53
2023/08/28 02:37:40;;;;;;;5.83;3.67;;;;;;;;;;5070898;28;20253;-48
2023/08/28 02:40:06;;;;;;;4.93;3.40;;;;;;;;;;5070924;28;20220;-48
2023/08/28 02:42:32;;;;;;;3.80;3.50;;;;;;;;;;5070957;28;20561;-49
2023/08/28 02:44:58;;;;;;;6.77;3.30;;;;;;;;;;5070692;28;20265;-49
2023/08/28 02:47:24;;;;;;;5.37;3.57;;;;;;;;;;5070487;28;20202;-48
2023/08/28 02:49:50;;;;;;;5.27;3.20;;;;;;;;;;5070782;28;20178;-53
2023/08/28 02:52:16;;;;;;;6.97;2.80;;;;;;;;;;5070889;28;20179;-49
2023/08/28 02:54:42;;;;;;;6.97;4.80;;;;;;;;;;5070812;28;20210;-48
2023/08/28 02:57:08;;;;;;;2.60;2.40;;;;;;;;;;5070317;28;20256;-48
2023/08/28 02:59:34;;;;;;;4.97;2.83;;;;;;;;;;5072300;28;20180;-48
2023/08/28 03:02:00;;;;;;;4.93;3.33;;;;;;;;;;5074244;28;20635;-48
2023/08/28 03:04:26;;;;;;;5.93;3.33;;;;;;;;;;5074213;28;20737;-50
2023/08/28 03:06:52;;;;;;;4.07;3.00;;;;;;;;;;5073709;28;20216;-53
2023/08/28 03:09:18;;;;;;;4.37;2.97;;;;;;;;;;5074119;28;20202;-55
2023/08/28 03:11:44;;;;;;;3.67;2.50;;;;;;;;;;5074125;28;20206;-49
2023/08/28 03:14:10;;;;;;;4.90;3.10;;;;;;;;;;5073999;28;20182;-48
2023/08/28 03:16:35;;;;;;;4.20;2.83;;;;;;;;;;5073481;28;20267;-50
2023/08/28 03:19:01;;;;;;;6.27;3.37;;;;;;;;;;5073820;28;20175;-50
2023/08/28 03:21:27;;;;;;;4.67;2.70;;;;;;;;;;5073935;28;20213;-49
2023/08/28 03:23:53;;;;;;;4.47;2.77;;;;;;;;;;5073886;28;20175;-48
2023/08/28 03:26:19;;;;;;;2.57;2.20;;;;;;;;;;5073442;28;20281;-48
2023/08/28 03:28:45;;;;;;;45.20;42.27;;;;;;;;;;5073769;28;20180;-49
2023/08/28 03:31:11;;;;;;;5.63;3.20;;;;;;;;;;5073664;28;20682;-48
2023/08/28 03:33:37;;;;;;;7.00;3.47;;;;;;;;;;5073544;28;20179;-50
2023/08/28 03:36:04;;;;;;;5.23;3.10;;;;;;;;;;5073018;28;20228;-51
2023/08/28 03:38:29;;;;;;;25.80;24.00;;;;;;;;;;5073563;28;20178;-49
2023/08/28 03:40:55;;;;;;;5.03;2.97;;;;;;;;;;5073394;28;20539;-52
2023/08/28 03:43:21;;;;;;;3.87;2.43;;;;;;;;;;5073497;28;20254;-53
2023/08/28 03:45:47;;;;;;;3.93;2.50;;;;;;;;;;5055236;28;20244;-49
2023/08/28 03:48:13;;;;;;;4.33;2.13;;;;;;;;;;5073148;28;20285;-49
2023/08/28 03:50:39;;;;;;;11.63;9.67;;;;;;;;;;5073350;28;20178;-51
2023/08/28 03:53:05;;;;;;;5.80;3.43;;;;;;;;;;5073228;28;20197;-48
2023/08/28 03:55:31;;;;;;;13.13;11.87;;;;;;;;;;5072877;28;20252;-48
2023/08/28 03:57:58;;;;;;;6.37;3.43;;;;;;;;;;5073061;28;20210;-51
2023/08/28 04:00:25;;;;;;;5.67;2.80;;;;;;;;;;5073184;28;20196;-50
2023/08/28 04:02:51;;;;;;;8.50;3.00;;;;;;;;;;5073056;28;20167;-48
2023/08/28 04:05:17;;;;;;;10.23;4.93;;;;;;;;;;5072480;28;20193;-48
2023/08/28 04:07:43;;;;;;;5.30;2.83;;;;;;;;;;5072932;28;20246;-48
2023/08/28 04:10:10;;;;;;;5.07;3.23;;;;;;;;;;5072832;28;20196;-48
2023/08/28 04:12:36;;;;;;;6.17;3.17;;;;;;;;;;5072986;28;20557;-48
2023/08/28 04:15:03;;;;;;;35.13;31.90;;;;;;;;;;5072650;28;20187;-49
2023/08/28 04:17:29;;;;;;;10.30;9.37;;;;;;;;;;5072575;28;20195;-51
2023/08/28 04:19:56;;;;;;;5.50;3.67;;;;;;;;;;5072819;28;20178;-51
2023/08/28 04:22:22;;;;;;;5.17;3.40;;;;;;;;;;5072666;28;20179;-49
2023/08/28 04:24:50;;;;;;;5.83;4.57;;;;;;;;;;5055536;28;20193;-49
2023/08/28 04:27:16;;;;;;;7.50;3.93;;;;;;;;;;5072240;28;20282;-51
2023/08/28 04:29:42;;;;;;;40.53;37.97;;;;;;;;;;5072646;28;20258;-49
2023/08/28 04:32:09;;;;;;;18.50;17.23;;;;;;;;;;5072480;28;20206;-48
2023/08/28 04:34:35;;;;;;;5.47;3.60;;;;;;;;;;5072617;28;20652;-48
2023/08/28 04:37:01;;;;;;;6.87;4.60;;;;;;;;;;5071997;28;20238;-49
2023/08/28 04:39:28;;;;;;;4.73;3.00;;;;;;;;;;5072431;28;20551;-51
2023/08/28 04:41:54;;;;;;;4.13;3.47;;;;;;;;;;5072419;28;20228;-48
2023/08/28 04:44:20;;;;;;;3.40;2.73;;;;;;;;;;5072276;28;20262;-50
2023/08/28 04:46:49;;;;;;;2.80;2.40;;;;;;;;;;5071918;28;20275;-49
2023/08/28 04:49:15;;;;;;;3.67;2.53;;;;;;;;;;5072335;28;20562;-52
2023/08/28 04:51:41;;;;;;;3.70;2.53;;;;;;;;;;5072165;28;20183;-51
2023/08/28 04:54:07;;;;;;;3.60;2.73;;;;;;;;;;5072068;28;20651;-51
2023/08/28 04:56:33;;;;;;;2.60;2.10;;;;;;;;;;5071633;28;20335;-51
2023/08/28 04:58:59;;;;;;;6.00;2.23;;;;;;;;;;5071996;28;20532;-55
2023/08/28 05:01:25;;;;;;;3.33;2.40;;;;;;;;;;5071948;28;20181;-49
2023/08/28 05:03:51;;;;;;;4.27;2.80;;;;;;;;;;5070699;28;20179;-55
2023/08/28 05:06:17;;;;;;;5.10;2.70;;;;;;;;;;5071508;28;20228;-52
2023/08/28 05:08:43;;;;;;;44.07;41.10;;;;;;;;;;5071852;28;20227;-55
2023/08/28 05:11:09;;;;;;;81.37;76.00;;;;;;;;;;5071757;28;20600;-56
2023/08/28 05:13:35;;;;;;;5.23;3.00;;;;;;;;;;5071765;28;20175;-57
2023/08/28 05:16:01;;;;;;;6.03;2.93;;;;;;;;;;5071344;28;20203;-51
2023/08/28 05:18:27;;;;;;;3.87;2.33;;;;;;;;;;5071666;28;20335;-52
2023/08/28 05:20:53;;;;;;;5.17;2.47;;;;;;;;;;5071737;28;20174;-51
2023/08/28 05:23:25;;;;;;;5.83;4.50;;;;;;;;;;5071126;28;20179;-49
2023/08/28 05:25:51;;;;;;;168.00;150.23;;;;;;;;;;5071498;28;20194;-50
2023/08/28 05:28:17;;;;;;;6.07;3.37;;;;;;;;;;5071439;28;20206;-48
2023/08/28 05:30:43;;;;;;;4.20;2.23;;;;;;;;;;5071663;28;20237;-50
2023/08/28 05:33:09;;;;;;;5.60;2.53;;;;;;;;;;5071487;28;20197;-48
2023/08/28 05:35:35;;;;;;;5.97;3.00;;;;;;;;;;5071174;28;20620;-52
2023/08/28 05:38:01;;;;;;;5.10;2.73;;;;;;;;;;5071355;28;20253;-53
2023/08/28 05:40:27;;;;;;;6.40;3.03;;;;;;;;;;5071401;28;20178;-53
2023/08/28 05:42:53;;;;;;;3.47;2.50;;;;;;;;;;5071379;28;20190;-49
2023/08/28 05:45:19;;;;;;;8.13;3.83;;;;;;;;;;5071118;28;20182;-54
2023/08/28 05:47:45;;;;;;;3.10;2.00;;;;;;;;;;5071369;28;20194;-53
2023/08/28 05:50:11;;;;;;;6.00;2.77;;;;;;;;;;5071398;28;20190;-55
2023/08/28 05:52:37;;;;;;;7.93;3.53;;;;;;;;;;5070767;28;20179;-48
2023/08/28 05:55:04;;;;;;;4.63;2.63;;;;;;;;;;5070499;28;20274;-48
2023/08/28 05:57:30;;;;;;;3.27;2.17;;;;;;;;;;5076182;28;20206;-50
2023/08/28 05:59:56;;;;;;;2.23;1.73;;;;;;;;;;5071286;28;20178;-50
2023/08/28 06:02:22;;;;;;;2.30;1.80;;;;;;;;;;5071030;28;20220;-50
2023/08/28 06:04:49;;;;;;;4.13;2.37;;;;;;;;;;5071135;28;20178;-52
2023/08/28 06:07:15;;;;;;;4.47;2.50;;;;;;;;;;5070704;28;20226;-50
2023/08/28 06:09:43;;;;;;;3.47;2.30;;;;;;;;;;5071299;28;20190;-49
2023/08/28 06:12:10;;;;;;;4.27;2.33;;;;;;;;;;5071144;28;20536;-50
2023/08/28 06:14:36;;;;;;;4.83;2.70;;;;;;;;;;5071215;28;20179;-51
2023/08/28 06:17:03;;;;;;;3.30;2.07;;;;;;;;;;5070747;28;20235;-48
2023/08/28 06:19:29;;;;;;;3.43;2.30;;;;;;;;;;5071078;28;20378;-49
2023/08/28 06:21:55;;;;;;;3.93;2.00;;;;;;;;;;5070500;28;20179;-50
2023/08/28 06:24:21;;;;;;;5.10;2.63;;;;;;;;;;5070921;28;20185;-49
2023/08/28 06:26:47;;;;;;;5.53;2.80;;;;;;;;;;5070653;28;20293;-52
2023/08/28 06:29:13;;;;;;;4.90;2.60;;;;;;;;;;5068158;28;20271;-53
2023/08/28 06:31:39;;;;;;;4.47;1.90;;;;;;;;;;5070952;28;20317;-50
2023/08/28 06:34:05;;;;;;;5.87;2.07;;;;;;;;;;5071863;28;20179;-47
2023/08/28 06:36:31;;;;;;;2.93;2.10;;;;;;;;;;5074186;28;20288;-49
2023/08/28 06:38:57;;;;;;;3.77;2.10;;;;;;;;;;5074721;28;20244;-48
2023/08/28 06:41:23;;;;;;;2.90;2.10;;;;;;;;;;5070816;28;20187;-49
2023/08/28 06:43:49;;;;;;;2.63;2.00;;;;;;;;;;5074976;28;20177;-57
2023/08/28 06:46:15;;;;;;;2.60;2.17;;;;;;;;;;5074321;28;20558;-49
2023/08/28 06:48:44;;;;;;;2.37;1.80;;;;;;;;;;5074519;28;20175;-50
2023/08/28 06:51:13;;;;;;;1.63;1.53;;;;;;;;;;5074510;28;20178;-50
2023/08/28 06:53:39;;;;;;;1.93;1.80;;;;;;;;;;5074420;28;20177;-48
2023/08/28 07:01:52;;;;;;;3.50;1.57;;;;;;;;;;5068964;28;20545;-50
2023/08/28 07:04:18;;;;;;;1.67;1.57;;;;;;;;;;5068871;28;20178;-53
2023/08/28 07:06:44;;;;;;;2.27;1.60;;;;;;;;;;5062161;28;20751;-48
2023/08/28 07:09:10;;;;;;;1.50;1.40;;;;;;;;;;5048598;28;20732;-52
2023/08/28 07:11:36;;;;;;;3.47;1.67;;;;;;;;;;5042398;28;20580;-49
2023/08/28 07:14:03;;;;;;;1.77;1.47;;;;;;;;;;5048787;28;20184;-49
2023/08/28 07:16:29;;;;;;;1.90;1.60;;;;;;;;;;5048239;28;20207;-48
2023/08/28 07:18:55;;;;;;;1.83;1.40;;;;;;;;;;5048790;28;20620;-48
2023/08/28 07:21:21;;;;;;;1.70;1.60;;;;;;;;;;5048749;28;20558;-49
2023/08/28 07:23:47;;;;;;;2.13;1.80;;;;;;;;;;5048645;28;20183;-50
2023/08/28 07:26:13;;;;;;;1.90;1.70;;;;;;;;;;5048235;28;20209;-49
2023/08/28 07:28:39;;;;;;;1.53;1.43;;;;;;;;;;5048416;28;20180;-49
2023/08/28 07:31:05;;;;;;;1.60;1.50;;;;;;;;;;5048393;28;20214;-51
2023/08/28 07:33:31;;;;;;;4.40;1.50;;;;;;;;;;5048383;28;20188;-49
2023/08/28 07:35:57;;;;;;;1.73;1.40;;;;;;;;;;5048110;28;20550;-51
2023/08/28 07:38:23;;;;;;;1.60;1.50;;;;;;;;;;5048272;28;20257;-55
2023/08/28 07:40:49;;;;;;;3.37;1.60;;;;;;;;;;5048302;28;20210;-53
2023/08/28 07:43:15;;;;;;;2.50;1.60;;;;;;;;;;5048235;28;20211;-53
2023/08/28 07:45:41;;;;;;;2.53;1.83;;;;;;;;;;5039707;28;20191;-50
2023/08/28 07:48:08;;;;;;;1.70;1.60;;;;;;;;;;5048141;28;20261;-48
2023/08/28 07:50:34;;;;;;;1.93;1.60;;;;;;;;;;5047911;28;20747;-50
2023/08/28 07:53:00;;;;;;;2.10;1.50;;;;;;;;;;5048240;28;20557;-48
2023/08/28 07:55:26;;;;;;;3.27;2.17;;;;;;;;;;5047627;28;20183;-49
2023/08/28 07:57:52;;;;;;;1.90;1.70;;;;;;;;;;5047919;28;20203;-49
2023/08/28 08:00:20;;;;;;;3.03;2.00;;;;;;;;;;5047724;28;20206;-55
2023/08/28 08:02:47;;;;;;;2.60;2.00;;;;;;;;;;5047856;28;20179;-50
2023/08/28 08:05:13;;;;;;;3.17;2.10;;;;;;;;;;5047600;28;20272;-47
2023/08/28 08:07:39;;;;;;;3.77;2.30;;;;;;;;;;5047649;28;20211;-51
2023/08/28 08:10:06;;;;;;;4.47;2.43;;;;;;;;;;5047675;28;20206;-48
2023/08/28 08:12:32;;;;;;;6.13;3.37;;;;;;;;;;5038046;28;20176;-51
2023/08/28 08:14:58;;;;;;;4.53;2.70;;;;;;;;;;5034179;28;20680;-49
2023/08/28 08:17:24;;;;;;;4.70;2.60;;;;;;;;;;5034019;28;20196;-49
2023/08/28 08:19:50;;;;;;;4.67;2.87;;;;;;;;;;5034328;28;20666;-51
2023/08/28 08:22:16;;;;;;;4.33;2.60;;;;;;;;;;5034263;28;20651;-53
2023/08/28 08:24:42;;;;;;;4.17;2.33;;;;;;;;;;5034107;28;20713;-48
2023/08/28 08:27:08;;;;;;;3.33;2.07;;;;;;;;;;5033853;28;20703;-51
2023/08/28 08:29:34;;;;;;;4.40;2.63;;;;;;;;;;5033948;28;20180;-48
2023/08/28 08:32:00;;;;;;;5.10;2.63;;;;;;;;;;5034092;28;20758;-52
2023/08/28 08:34:28;;;;;;;5.93;2.90;;;;;;;;;;5033416;28;20183;-53
2023/08/28 08:36:54;;;;;;;3.90;2.30;;;;;;;;;;5027910;28;20705;-51
2023/08/28 08:39:21;;;;;;;6.40;2.97;;;;;;;;;;5035538;28;20180;-48
2023/08/28 08:41:47;;;;;;;3.80;2.40;;;;;;;;;;5030443;28;20177;-56
2023/08/28 08:44:13;;;;;;;6.37;2.87;;;;;;;;;;5028936;28;20246;-54
2023/08/28 08:46:41;;;;;;;8.80;4.03;;;;;;;;;;5028633;28;20219;-54
2023/08/28 08:49:10;;;;;;;4.73;2.73;;;;;;;;;;5035210;28;20188;-52
2023/08/28 08:51:37;;;;;;;4.83;2.83;;;;;;;;;;5031837;28;20287;-50
2023/08/28 08:54:07;;;;;;;4.33;2.70;;;;;;;;;;5034595;28;20187;-58
2023/08/28 08:56:33;;;;;;;8.10;4.60;;;;;;;;;;5029439;28;20573;-48
2023/08/28 08:59:00;;;;;;;8.93;4.87;;;;;;;;;;5032371;28;20183;-54
2023/08/28 09:01:26;;;;;;;7.63;4.23;;;;;;;;;;5029596;28;20192;-50
2023/08/28 09:03:53;;;;;;;7.10;3.23;;;;;;;;;;5031860;28;20291;-48
2023/08/28 09:06:19;;;;;;;4.43;2.63;;;;;;;;;;5032950;28;20616;-50
2023/08/28 09:08:45;;;;;;;5.20;2.93;;;;;;;;;;5035006;28;20186;-48
2023/08/28 09:11:11;;;;;;;4.93;3.00;;;;;;;;;;5028198;28;20204;-50
2023/08/28 09:13:42;;;;;;;6.90;3.80;;;;;;;;;;5034016;28;20187;-49
2023/08/28 09:16:08;;;;;;;4.27;2.93;;;;;;;;;;5027997;28;20192;-51
2023/08/28 09:18:34;;;;;;;6.67;3.60;;;;;;;;;;5033705;28;20171;-49
2023/08/28 09:21:13;;;;;;;3.07;2.23;;;;;;;;;;5029793;28;20185;-50
2023/08/28 09:23:43;;;;;;;6.40;4.37;;;;;;;;;;5031514;28;20184;-50
2023/08/28 09:26:11;;;;;;;7.80;5.20;;;;;;;;;;5028072;28;20195;-49
2023/08/28 09:28:37;;;;;;;5.67;3.77;;;;;;;;;;5030392;28;20184;-54
2023/08/28 09:31:03;;;;;;;8.77;4.27;;;;;;;;;;5027741;28;20254;-54
2023/08/28 09:33:42;;;;;;;3.87;2.53;;;;;;;;;;5034291;28;20255;-54
2023/08/28 09:36:14;;;;;;;4.60;2.60;;;;;;;;;;5027479;28;20200;-50
2023/08/28 09:38:43;;;;;;;4.60;2.83;;;;;;;;;;5032148;28;20546;-49
2023/08/28 09:41:09;;;;;;;4.40;2.57;;;;;;;;;;5030072;28;20196;-49
2023/08/28 09:43:36;;;;;;;8.17;3.70;;;;;;;;;;5032255;28;20194;-54
2023/08/28 09:46:03;;;;;;;6.93;2.87;;;;;;;;;;5030314;28;20190;-53
2023/08/28 09:48:31;;;;;;;4.67;2.83;;;;;;;;;;5036582;28;20262;-51
2023/08/28 09:51:01;;;;;;;5.07;2.23;;;;;;;;;;5034475;28;20207;-48
2023/08/28 09:53:29;;;;;;;4.67;2.77;;;;;;;;;;5035712;28;20184;-57
2023/08/28 09:55:55;;;;;;;4.60;2.90;;;;;;;;;;5034171;28;20553;-48
2023/08/28 09:58:28;;;;;;;3.37;2.07;;;;;;;;;;5034417;28;20199;-49
2023/08/28 10:00:57;;;;;;;5.63;3.00;;;;;;;;;;5024290;28;20192;-52
2023/08/28 10:03:25;;;;;;;3.87;3.00;;;;;;;;;;5032305;28;20595;-48
2023/08/28 10:05:51;;;;;;;4.70;2.73;;;;;;;;;;5031950;28;20184;-52
2023/08/28 10:08:18;;;;;;;3.03;1.93;;;;;;;;;;5033546;28;20204;-50
2023/08/28 10:10:47;;;;;;;4.77;2.70;;;;;;;;;;5031024;28;20201;-50
2023/08/28 10:13:17;;;;;;;4.70;2.73;;;;;;;;;;5028191;28;20539;-53
2023/08/28 10:16:01;;;;;;;7.00;3.80;;;;;;;;;;5028757;28;20322;-50
2023/08/28 10:18:36;;;;;;;3.37;2.27;;;;;;;;;;5031236;28;20171;-51
2023/08/28 10:21:02;;;;;;;3.83;2.40;;;;;;;;;;5029241;28;20697;-53
2023/08/28 10:23:28;;;;;;;4.63;2.17;;;;;;;;;;5028985;28;20180;-50
2023/08/28 10:25:55;;;;;;;4.57;2.77;;;;;;;;;;5031840;28;20203;-54
2023/08/28 10:28:22;;;;;;;6.03;2.80;;;;;;;;;;5032246;28;20203;-48
2023/08/28 10:30:49;;;;;;;3.53;2.10;;;;;;;;;;5031606;28;20223;-52
2023/08/28 10:33:15;;;;;;;3.63;2.23;;;;;;;;;;5028255;28;20204;-49
2023/08/28 10:35:42;;;;;;;3.90;2.50;;;;;;;;;;5028937;28;20183;-50
2023/08/28 10:38:09;;;;;;;5.20;2.40;;;;;;;;;;5031483;28;20191;-49
2023/08/28 10:40:36;;;;;;;5.43;2.90;;;;;;;;;;5031666;28;20175;-52
2023/08/28 10:43:02;;;;;;;2.87;2.07;;;;;;;;;;5031644;28;20180;-51
2023/08/28 10:45:28;;;;;;;4.37;2.73;;;;;;;;;;5031465;28;20524;-50
2023/08/28 10:47:54;;;;;;;3.23;2.03;;;;;;;;;;5031564;28;20202;-48
2023/08/28 10:50:20;;;;;;;3.07;1.97;;;;;;;;;;5031674;28;20278;-48
2023/08/28 10:52:46;;;;;;;4.07;2.40;;;;;;;;;;5031544;28;20610;-49
2023/08/28 10:55:16;;;;;;;7.30;3.67;;;;;;;;;;5031252;28;20203;-49
2023/08/28 10:57:47;;;;;;;3.33;1.93;;;;;;;;;;5031404;28;20196;-49
2023/08/28 11:00:15;;;;;;;3.23;1.47;;;;;;;;;;5031517;28;20211;-50
2023/08/28 11:03:09;;;;;;;3.73;2.03;;;15.80;99.90;;;;;;5031628;28;20609;-49
2023/08/28 11:05:37;;;;;;;3.37;1.97;;;;;;;;;;5031087;28;20175;-54
2023/08/28 11:08:07;;;;;;;2.67;1.60;;;;;;;;;;5031429;28;20267;-51
2023/08/28 11:10:34;;;;;;;2.10;1.40;;;;;;;;;;5031445;28;20209;-53
2023/08/28 11:13:05;;;;;;;2.77;1.57;;;;;;;;;;5023497;28;20551;-53
2023/08/28 11:15:35;;;;;;;3.40;2.07;;;;;;;;;;5031247;28;20209;-54
2023/08/28 11:18:19;;;;;;;2.53;1.70;;;;;;;;;;5031433;28;20194;-49
2023/08/28 11:21:05;;;;;;;2.97;1.87;;;;;;;;;;5031308;28;20266;-49
2023/08/28 11:23:39;;;;;;;2.83;1.80;;;;;;;;;;5031432;28;20570;-51
2023/08/28 11:26:26;;;;;;;4.50;2.10;;;;;;;;;;5031012;28;20241;-49
2023/08/28 11:28:53;;;;;;;4.43;2.50;;;;;;;;;;5031181;28;20604;-59
2023/08/28 11:31:19;;;;;;;3.60;2.20;;;;;;;;;;5031405;28;20208;-52
2023/08/28 11:33:49;;;;;;;4.27;2.40;;;;;;;;;;5031202;28;20193;-49
2023/08/28 11:36:17;;;;;;;6.80;3.30;;;;;;;;;;5030906;28;20191;-50
2023/08/28 11:38:44;;;;;;;1.73;1.50;;;;;;;;;;5031109;28;20172;-48
2023/08/28 11:41:10;;;;;;;3.13;2.00;;;;;;;;;;5031163;28;20187;-50
2023/08/28 11:43:40;;;;;;;3.73;2.07;;;;;;;;;;5031239;28;20183;-50
2023/08/28 11:46:06;;;;;;;4.73;2.30;;;;;;;;;;5031459;28;20276;-54
2023/08/28 11:48:36;;;;;;;4.13;2.27;;;;;;;;;;5034480;28;20213;-53
2023/08/28 11:51:03;;;;;;;5.37;2.20;;;;;;;;;;5031988;28;20206;-52
2023/08/28 11:53:34;;;;;;;4.67;2.43;;;;;;;;;;5029809;28;20229;-57
2023/08/28 11:56:00;;;;;;;6.97;3.33;;;;;;;;;;5026626;28;20193;-53
2023/08/28 11:58:27;;;;;;;4.23;2.30;;;;;;;;;;5025850;28;20344;-50
2023/08/28 12:00:53;;;;;;;5.63;3.00;;;;;;;;;;5028097;28;20201;-48
2023/08/28 12:03:19;;;;;;;4.53;2.87;;;;;;;;;;5030116;28;20183;-50
2023/08/28 12:05:45;;;;;;;4.17;2.40;;;;;;;;;;5029049;28;20249;-51
2023/08/28 12:08:12;;;;;;;3.77;2.30;;;;;;;;;;5034430;28;20198;-51
2023/08/28 12:10:38;;;;;;;3.10;2.17;;;;;;;;;;5034515;28;20231;-49
2023/08/28 12:13:04;;;;;;;5.23;2.23;;;;;;;;;;5034401;28;20178;-49
2023/08/28 12:15:33;;;;;;;5.53;2.87;;;;;;;;;;5031001;28;20182;-48
2023/08/28 12:18:01;;;;;;;5.57;3.93;;;;;;;;;;5028460;28;20273;-51
2023/08/28 12:20:30;;;;;;;4.30;2.53;;;;;;;;;;5025733;28;20660;-53
2023/08/28 12:22:58;;;;;;;4.03;2.30;;;;;;;;;;5033904;28;20244;-49
2023/08/28 12:25:30;;;;;;;7.13;3.87;;;;;;;;;;5028656;28;20182;-50
2023/08/28 12:28:09;;;;;;;3.10;2.00;;;;;;;;;;5026869;28;20206;-52
2023/08/28 12:30:39;;;;;;;4.47;2.87;;;;;;;;;;5025559;28;20193;-52
2023/08/28 12:33:05;;;;;;;5.70;3.53;;;;;;;;;;5026724;28;20177;-55
2023/08/28 12:35:38;;;;;;;4.97;2.83;;;;;;;;;;5023543;28;20686;-54
2023/08/28 12:38:04;;;;;;;3.70;3.40;;;;;;;;;;5027531;28;20198;-50
2023/08/28 12:40:35;;;;;;;2.97;2.27;;;;;;;;;;5024932;28;20179;-50
2023/08/28 12:43:03;;;;;;;4.63;2.70;;;;;;;;;;5028074;28;20183;-49
2023/08/28 12:45:29;;;;;;;6.07;3.10;;;;;;;;;;5025762;28;20180;-51
2023/08/28 12:47:55;;;;;;;6.23;4.70;;;;;;;;;;5027074;28;20352;-51
2023/08/28 12:50:21;;;;;;;5.00;2.67;;;;;;;;;;5026724;28;20290;-47
2023/08/28 12:52:47;;;;;;;3.67;2.17;;;;;;;;;;5029067;28;20672;-48
2023/08/28 12:55:13;;;;;;;6.87;3.43;;;;;;;;;;5032024;28;20179;-51
2023/08/28 12:57:39;;;;;;;4.27;2.97;;;;;;;;;;5027074;28;20703;-50
2023/08/28 13:00:07;;;;;;;2.67;2.47;;;;;;;;;;5024431;28;21169;-50
2023/08/28 13:02:33;;;;;;;3.43;1.87;;;;;;;;;;5026841;28;20187;-53
2023/08/28 13:05:00;;;;;;;4.93;2.40;;;;;;;;;;5019101;28;20591;-54
2023/08/28 13:07:26;;;;;;;4.63;2.13;;;;;;;;;;5024740;28;20262;-49
2023/08/28 13:09:52;;;;;;;5.50;2.73;;;;;;;;;;5020251;28;20187;-48
2023/08/28 13:12:20;;;;;;;4.37;2.47;;;;;;;;;;5023647;28;20181;-51
2023/08/28 13:14:46;;;;;;;3.97;2.43;;;;;;;;;;5022766;28;20189;-55
2023/08/28 13:17:14;;;;;;;5.20;3.23;;;;;;;;;;5024634;28;20261;-49
2023/08/28 13:19:40;;;;;;;4.60;3.40;;;;;;;;;;5020579;28;20183;-48
2023/08/28 13:22:06;;;;;;;5.57;2.90;;;;;;;;;;5027097;28;20558;-48
2023/08/28 13:24:32;;;;;;;7.20;6.50;;;;;;;;;;5022937;28;20245;-56
2023/08/28 13:26:58;;;;;;;4.67;2.60;;;;;;;;;;5024266;28;20236;-52
2023/08/28 13:29:24;;;;;;;4.57;3.13;;;;;;;;;;5027761;28;20662;-51
2023/08/28 13:31:50;;;;;;;7.73;6.93;;;;;;;;;;5027870;28;20289;-50
2023/08/28 13:34:16;;;;;;;13.57;12.43;;;;;;;;;;5026856;28;20198;-52
2023/08/28 13:36:43;;;;;;;5.10;3.43;;;;;;;;;;5023980;28;20208;-52
2023/08/28 13:39:09;;;;;;;5.00;4.70;;;;;;;;;;5032933;28;20182;-50
2023/08/28 13:41:37;;;;;;;5.73;4.97;;;;;;;;;;5033017;28;20187;-52
2023/08/28 13:44:04;;;;;;;8.20;7.07;;;;;;;;;;5024405;28;20202;-57
2023/08/28 13:46:30;;;;;;;443.53;318.27;;;;;;;;;;5031091;28;20220;-51
2023/08/28 13:48:56;;;;;;;443.90;343.23;;;;;;;;;;5032937;28;20191;-50
2023/08/28 13:51:22;;;;;;;160.07;147.07;;;;;;;;;;5029088;28;20296;-60
2023/08/28 13:53:48;;;;;;;105.50;98.37;;;;;;;;;;5023133;28;20194;-58
2023/08/28 13:56:14;;;;;;;59.20;55.53;;;;;;;;;;5019437;28;20266;-49
2023/08/28 13:58:40;;;;;;;111.67;104.27;;;;;;;;;;5024906;28;20189;-53
2023/08/28 14:01:07;;;;;;;227.47;207.93;;;;;;;;;;5036523;28;20228;-58
2023/08/28 14:03:33;;;;;;;25.67;24.07;;;;;;;;;;5021390;28;20193;-51
2023/08/28 14:06:05;;;;;;;16.37;14.97;;;;;;;;;;5025555;28;20186;-54
2023/08/28 14:08:31;;;;;;;42.70;40.27;;;;;;;;;;5027783;28;20206;-53
2023/08/28 14:11:04;;;;;;;48.10;44.93;;;;;;;;;;5027438;28;20740;-57
2023/08/28 14:13:30;;;;;;;95.77;89.33;;;;;;;;;;5023252;28;20181;-54
2023/08/28 14:15:55;;;;;;;41.87;39.17;;;;;;;;;;5026906;28;20252;-59
2023/08/28 14:18:21;;;;;;;79.33;74.53;;;;;;;;;;5023183;28;20210;-51
2023/08/28 14:20:51;;;;;;;111.73;104.00;;;;;;;;;;5026117;28;20200;-51
2023/08/28 14:23:17;;;;;;;148.43;137.17;;;;;;;;;;5024393;28;20669;-52
2023/08/28 14:25:43;;;;;;;155.83;143.60;;;;;;;;;;5025186;28;20195;-55
2023/08/28 14:28:09;;;;;;;121.77;112.97;;;;;;;;;;5026077;28;20765;-55
2023/08/28 14:30:35;;;;;;;111.50;103.93;;;;;;;;;;5024414;28;20257;-55
2023/08/28 14:33:01;;;;;;;61.07;57.37;;;;;;;;;;5023459;28;20177;-51
2023/08/28 14:35:27;;;;;;;32.30;30.07;;;;;;;;;;5023863;28;20178;-57
2023/08/28 14:37:53;;;;;;;53.80;50.47;;;;;;;;;;5028538;28;20580;-53
2023/08/28 14:40:19;;;;;;;59.90;56.03;;;;;;;;;;5021686;28;20201;-60
2023/08/28 14:42:45;;;;;;;11.77;10.73;;;;;;;;;;5027431;28;20609;-52